sensor_id;sensor_type;location;lat;lon;timestamp;temperature;humidity
43227;DHT22;28839;52.404;9.808;2023-08-08T00:02:47;13.00;99.90
43227;DHT22;28839;52.404;9.808;2023-08-08T00:09:40;12.90;99.90
43227;DHT22;28839;52.404;9.808;2023-08-08T00:16:36;13.00;99.90
43227;DHT22;28839;52.404;9.808;2023-08-08T00:23:29;13.10;99.90
43227;DHT22;28839;52.404;9.808;2023-08-08T00:30:23;13.00;99.90
43227;DHT22;28839;52.404;9.808;2023-08-08T00:37:18;13.10;99.90
43227;DHT22;28839;52.404;9.808;2023-08-08T00:44:12;13.10;99.90
43227;DHT22;28839;52.404;9.808;2023-08-08T00:51:06;13.10;99.90
43227;DHT22;28839;52.404;9.808;2023-08-08T00:58:01;13.20;99.90
43227;DHT22;28839;52.404;9.808;2023-08-08T01:04:55;13.20;99.90
43227;DHT22;28839;52.404;9.808;2023-08-08T01:11:49;13.20;99.90
43227;DHT22;28839;52.404;9.808;2023-08-08T01:18:47;13.20;99.90
43227;DHT22;28839;52.404;9.808;2023-08-08T01:25:43;13.10;99.90
43227;DHT22;28839;52.404;9.808;2023-08-08T01:32:37;13.20;99.90
43227;DHT22;28839;52.404;9.808;2023-08-08T01:39:32;13.20;99.90
43227;DHT22;28839;52.404;9.808;2023-08-08T01:46:27;13.20;99.90
43227;DHT22;28839;52.404;9.808;2023-08-08T01:53:21;13.30;99.90
43227;DHT22;28839;52.404;9.808;2023-08-08T02:00:15;13.20;99.90
43227;DHT22;28839;52.404;9.808;2023-08-08T02:07:11;13.30;99.90
43227;DHT22;28839;52.404;9.808;2023-08-08T02:14:05;13.20;99.90
43227;DHT22;28839;52.404;9.808;2023-08-08T02:20:58;13.20;99.90
43227;DHT22;28839;52.404;9.808;2023-08-08T02:27:54;13.20;99.90
43227;DHT22;28839;52.404;9.808;2023-08-08T02:34:47;13.10;99.90
43227;DHT22;28839;52.404;9.808;2023-08-08T02:41:41;13.10;99.90
43227;DHT22;28839;52.404;9.808;2023-08-08T02:48:37;13.20;99.90
43227;DHT22;28839;52.404;9.808;2023-08-08T02:55:31;13.20;99.90
43227;DHT22;28839;52.404;9.808;2023-08-08T03:02:25;13.20;99.90
43227;DHT22;28839;52.404;9.808;2023-08-08T03:09:20;13.20;99.90
43227;DHT22;28839;52.404;9.808;2023-08-08T03:16:14;13.30;99.90
43227;DHT22;28839;52.404;9.808;2023-08-08T03:23:08;13.30;99.90
43227;DHT22;28839;52.404;9.808;2023-08-08T03:30:04;13.50;99.90
43227;DHT22;28839;52.404;9.808;2023-08-08T03:36:58;13.60;99.90
43227;DHT22;28839;52.404;9.808;2023-08-08T03:43:52;13.50;99.90
43227;DHT22;28839;52.404;9.808;2023-08-08T03:50:48;13.60;99.90
43227;DHT22;28839;52.404;9.808;2023-08-08T03:57:41;13.70;99.90
43227;DHT22;28839;52.404;9.808;2023-08-08T04:04:35;13.70;99.90
43227;DHT22;28839;52.404;9.808;2023-08-08T04:11:30;13.70;99.90
43227;DHT22;28839;52.404;9.808;2023-08-08T04:18:24;13.70;99.90
43227;DHT22;28839;52.404;9.808;2023-08-08T04:25:18;13.70;99.90
43227;DHT22;28839;52.404;9.808;2023-08-08T04:32:15;13.90;99.90
43227;DHT22;28839;52.404;9.808;2023-08-08T04:39:08;13.90;99.90
43227;DHT22;28839;52.404;9.808;2023-08-08T04:46:02;13.90;99.90
43227;DHT22;28839;52.404;9.808;2023-08-08T04:52:57;13.80;99.90
43227;DHT22;28839;52.404;9.808;2023-08-08T04:59:51;13.80;99.90
43227;DHT22;28839;52.404;9.808;2023-08-08T05:06:45;13.90;99.90
43227;DHT22;28839;52.404;9.808;2023-08-08T05:13:41;13.80;99.90
43227;DHT22;28839;52.404;9.808;2023-08-08T05:20:35;13.90;99.90
43227;DHT22;28839;52.404;9.808;2023-08-08T05:27:29;13.90;99.90
43227;DHT22;28839;52.404;9.808;2023-08-08T05:34:25;14.00;99.90
43227;DHT22;28839;52.404;9.808;2023-08-08T05:41:18;14.10;99.90
43227;DHT22;28839;52.404;9.808;2023-08-08T05:48:12;14.20;99.90
43227;DHT22;28839;52.404;9.808;2023-08-08T05:55:08;14.30;99.90
43227;DHT22;28839;52.404;9.808;2023-08-08T06:02:02;14.40;99.90
43227;DHT22;28839;52.404;9.808;2023-08-08T06:08:56;14.50;99.90
43227;DHT22;28839;52.404;9.808;2023-08-08T06:15:51;14.70;99.90
43227;DHT22;28839;52.404;9.808;2023-08-08T06:22:45;14.80;99.90
43227;DHT22;28839;52.404;9.808;2023-08-08T06:29:39;14.80;99.90
43227;DHT22;28839;52.404;9.808;2023-08-08T06:36:34;15.40;99.90
43227;DHT22;28839;52.404;9.808;2023-08-08T06:43:29;15.60;99.90
43227;DHT22;28839;52.404;9.808;2023-08-08T06:50:23;15.70;99.90
43227;DHT22;28839;52.404;9.808;2023-08-08T06:57:18;16.30;99.90
43227;DHT22;28839;52.404;9.808;2023-08-08T07:04:12;16.60;99.90
43227;DHT22;28839;52.404;9.808;2023-08-08T07:11:06;17.00;99.90
43227;DHT22;28839;52.404;9.808;2023-08-08T07:18:01;16.80;99.90
43227;DHT22;28839;52.404;9.808;2023-08-08T07:24:55;17.50;99.90
43227;DHT22;28839;52.404;9.808;2023-08-08T07:31:51;17.90;99.90
43227;DHT22;28839;52.404;9.808;2023-08-08T07:38:46;17.90;99.90
43227;DHT22;28839;52.404;9.808;2023-08-08T07:45:40;17.70;99.90
43227;DHT22;28839;52.404;9.808;2023-08-08T07:52:34;18.30;99.90
43227;DHT22;28839;52.404;9.808;2023-08-08T07:59:29;18.00;99.90
43227;DHT22;28839;52.404;9.808;2023-08-08T08:06:23;17.30;99.90
43227;DHT22;28839;52.404;9.808;2023-08-08T08:13:17;17.50;99.90
43227;DHT22;28839;52.404;9.808;2023-08-08T08:20:12;17.90;99.90
43227;DHT22;28839;52.404;9.808;2023-08-08T08:27:07;18.40;99.90
43227;DHT22;28839;52.404;9.808;2023-08-08T08:34:01;18.00;99.90
43227;DHT22;28839;52.404;9.808;2023-08-08T08:40:56;18.60;99.90
43227;DHT22;28839;52.404;9.808;2023-08-08T08:47:54;18.00;99.90
43227;DHT22;28839;52.404;9.808;2023-08-08T08:54:50;18.30;99.90
43227;DHT22;28839;52.404;9.808;2023-08-08T09:01:45;17.80;99.90
43227;DHT22;28839;52.404;9.808;2023-08-08T09:08:40;17.30;99.90
43227;DHT22;28839;52.404;9.808;2023-08-08T09:15:34;17.10;99.90
43227;DHT22;28839;52.404;9.808;2023-08-08T09:22:29;17.40;99.90
43227;DHT22;28839;52.404;9.808;2023-08-08T09:29:22;18.20;99.90
43227;DHT22;28839;52.404;9.808;2023-08-08T09:36:16;17.40;99.90
43227;DHT22;28839;52.404;9.808;2023-08-08T09:43:13;16.90;99.90
43227;DHT22;28839;52.404;9.808;2023-08-08T09:50:08;16.80;99.90
43227;DHT22;28839;52.404;9.808;2023-08-08T09:57:02;17.00;99.90
43227;DHT22;28839;52.404;9.808;2023-08-08T10:03:58;17.10;99.90
43227;DHT22;28839;52.404;9.808;2023-08-08T10:10:53;16.80;99.90
43227;DHT22;28839;52.404;9.808;2023-08-08T10:17:53;16.40;99.90
43227;DHT22;28839;52.404;9.808;2023-08-08T10:24:51;15.90;99.90
43227;DHT22;28839;52.404;9.808;2023-08-08T10:31:51;17.10;99.90
43227;DHT22;28839;52.404;9.808;2023-08-08T10:38:47;17.60;99.90
43227;DHT22;28839;52.404;9.808;2023-08-08T10:45:46;18.10;99.90
43227;DHT22;28839;52.404;9.808;2023-08-08T10:52:51;18.40;99.90
43227;DHT22;28839;52.404;9.808;2023-08-08T10:59:46;19.00;99.90
43227;DHT22;28839;52.404;9.808;2023-08-08T11:06:41;19.20;99.90
43227;DHT22;28839;52.404;9.808;2023-08-08T11:13:35;19.30;99.90
43227;DHT22;28839;52.404;9.808;2023-08-08T11:20:30;19.20;99.90
43227;DHT22;28839;52.404;9.808;2023-08-08T11:27:26;18.70;99.90
43227;DHT22;28839;52.404;9.808;2023-08-08T11:34:20;18.90;99.90
43227;DHT22;28839;52.404;9.808;2023-08-08T11:41:15;19.40;99.90
43227;DHT22;28839;52.404;9.808;2023-08-08T11:48:10;19.00;99.90
43227;DHT22;28839;52.404;9.808;2023-08-08T11:55:05;18.60;99.90
43227;DHT22;28839;52.404;9.808;2023-08-08T12:01:59;18.40;99.90
43227;DHT22;28839;52.404;9.808;2023-08-08T12:08:55;17.80;99.90
43227;DHT22;28839;52.404;9.808;2023-08-08T12:15:49;18.60;99.90
43227;DHT22;28839;52.404;9.808;2023-08-08T12:22:43;18.50;99.90
43227;DHT22;28839;52.404;9.808;2023-08-08T12:29:39;18.60;99.90
43227;DHT22;28839;52.404;9.808;2023-08-08T12:36:33;19.30;99.90
43227;DHT22;28839;52.404;9.808;2023-08-08T12:43:26;19.30;99.90
43227;DHT22;28839;52.404;9.808;2023-08-08T12:50:22;18.70;99.90
43227;DHT22;28839;52.404;9.808;2023-08-08T12:57:15;17.80;99.90
43227;DHT22;28839;52.404;9.808;2023-08-08T13:04:09;18.20;99.90
43227;DHT22;28839;52.404;9.808;2023-08-08T13:11:05;18.20;99.90
43227;DHT22;28839;52.404;9.808;2023-08-08T13:17:59;16.10;99.90
43227;DHT22;28839;52.404;9.808;2023-08-08T13:24:52;14.90;99.90
43227;DHT22;28839;52.404;9.808;2023-08-08T13:31:48;15.10;99.90
43227;DHT22;28839;52.404;9.808;2023-08-08T13:38:41;15.20;99.90
43227;DHT22;28839;52.404;9.808;2023-08-08T13:45:35;15.80;99.90
43227;DHT22;28839;52.404;9.808;2023-08-08T13:52:30;16.30;99.90
43227;DHT22;28839;52.404;9.808;2023-08-08T13:59:28;16.40;99.90
43227;DHT22;28839;52.404;9.808;2023-08-08T14:06:22;16.30;99.90
43227;DHT22;28839;52.404;9.808;2023-08-08T14:13:17;16.30;99.90
43227;DHT22;28839;52.404;9.808;2023-08-08T14:20:11;15.70;99.90
43227;DHT22;28839;52.404;9.808;2023-08-08T14:27:05;15.80;99.90
43227;DHT22;28839;52.404;9.808;2023-08-08T14:34:00;16.20;99.90
43227;DHT22;28839;52.404;9.808;2023-08-08T14:40:54;16.70;99.90
43227;DHT22;28839;52.404;9.808;2023-08-08T14:47:49;17.60;99.90
43227;DHT22;28839;52.404;9.808;2023-08-08T14:54:44;17.30;99.90
43227;DHT22;28839;52.404;9.808;2023-08-08T15:01:38;15.90;99.90
43227;DHT22;28839;52.404;9.808;2023-08-08T15:08:32;15.60;99.90
43227;DHT22;28839;52.404;9.808;2023-08-08T15:15:27;15.60;99.90
43227;DHT22;28839;52.404;9.808;2023-08-08T15:22:22;15.90;99.90
43227;DHT22;28839;52.404;9.808;2023-08-08T15:29:16;16.20;99.90
43227;DHT22;28839;52.404;9.808;2023-08-08T15:36:11;16.30;99.90
43227;DHT22;28839;52.404;9.808;2023-08-08T15:43:05;16.40;99.90
43227;DHT22;28839;52.404;9.808;2023-08-08T15:49:59;16.50;99.90
43227;DHT22;28839;52.404;9.808;2023-08-08T15:56:55;17.00;99.90
43227;DHT22;28839;52.404;9.808;2023-08-08T16:03:49;17.00;99.90
43227;DHT22;28839;52.404;9.808;2023-08-08T16:10:43;17.40;99.90
43227;DHT22;28839;52.404;9.808;2023-08-08T16:17:38;17.40;99.90
43227;DHT22;28839;52.404;9.808;2023-08-08T16:24:32;17.50;99.90
43227;DHT22;28839;52.404;9.808;2023-08-08T16:31:25;17.90;99.90
43227;DHT22;28839;52.404;9.808;2023-08-08T16:38:21;17.80;99.90
43227;DHT22;28839;52.404;9.808;2023-08-08T16:45:14;17.70;99.90
43227;DHT22;28839;52.404;9.808;2023-08-08T16:52:09;17.40;99.90
43227;DHT22;28839;52.404;9.808;2023-08-08T16:59:04;17.40;99.90
43227;DHT22;28839;52.404;9.808;2023-08-08T17:05:58;17.10;99.90
43227;DHT22;28839;52.404;9.808;2023-08-08T17:12:52;17.00;99.90
43227;DHT22;28839;52.404;9.808;2023-08-08T17:19:47;16.60;99.90
43227;DHT22;28839;52.404;9.808;2023-08-08T17:26:41;16.20;99.90
43227;DHT22;28839;52.404;9.808;2023-08-08T17:33:36;16.20;99.90
43227;DHT22;28839;52.404;9.808;2023-08-08T17:40:31;16.10;99.90
43227;DHT22;28839;52.404;9.808;2023-08-08T17:47:25;16.10;99.90
43227;DHT22;28839;52.404;9.808;2023-08-08T17:54:19;16.00;99.90
43227;DHT22;28839;52.404;9.808;2023-08-08T18:01:14;16.00;99.90
43227;DHT22;28839;52.404;9.808;2023-08-08T18:08:08;15.90;99.90
43227;DHT22;28839;52.404;9.808;2023-08-08T18:15:04;15.70;99.90
43227;DHT22;28839;52.404;9.808;2023-08-08T18:22:00;15.30;99.90
43227;DHT22;28839;52.404;9.808;2023-08-08T18:28:55;15.20;99.90
43227;DHT22;28839;52.404;9.808;2023-08-08T18:35:49;15.00;99.90
43227;DHT22;28839;52.404;9.808;2023-08-08T18:42:44;14.80;99.90
43227;DHT22;28839;52.404;9.808;2023-08-08T18:49:37;14.70;99.90
43227;DHT22;28839;52.404;9.808;2023-08-08T18:56:31;14.70;99.90
43227;DHT22;28839;52.404;9.808;2023-08-08T19:03:26;14.70;99.90
43227;DHT22;28839;52.404;9.808;2023-08-08T19:10:20;14.70;99.90
43227;DHT22;28839;52.404;9.808;2023-08-08T19:17:14;14.70;99.90
43227;DHT22;28839;52.404;9.808;2023-08-08T19:24:10;14.60;99.90
43227;DHT22;28839;52.404;9.808;2023-08-08T19:31:04;14.60;99.90
43227;DHT22;28839;52.404;9.808;2023-08-08T19:37:57;14.50;99.90
43227;DHT22;28839;52.404;9.808;2023-08-08T19:44:53;14.30;99.90
43227;DHT22;28839;52.404;9.808;2023-08-08T19:51:46;14.30;99.90
43227;DHT22;28839;52.404;9.808;2023-08-08T19:58:40;14.30;99.90
43227;DHT22;28839;52.404;9.808;2023-08-08T20:05:35;14.10;99.90
43227;DHT22;28839;52.404;9.808;2023-08-08T20:12:29;14.00;99.90
43227;DHT22;28839;52.404;9.808;2023-08-08T20:19:23;14.00;99.90
43227;DHT22;28839;52.404;9.808;2023-08-08T20:26:18;13.90;99.90
43227;DHT22;28839;52.404;9.808;2023-08-08T20:33:12;13.90;99.90
43227;DHT22;28839;52.404;9.808;2023-08-08T20:40:06;14.10;99.90
43227;DHT22;28839;52.404;9.808;2023-08-08T20:47:03;14.10;99.90
43227;DHT22;28839;52.404;9.808;2023-08-08T20:53:56;14.10;99.90
43227;DHT22;28839;52.404;9.808;2023-08-08T21:00:50;14.10;99.90
43227;DHT22;28839;52.404;9.808;2023-08-08T21:07:45;14.10;99.90
43227;DHT22;28839;52.404;9.808;2023-08-08T21:14:39;14.10;99.90
43227;DHT22;28839;52.404;9.808;2023-08-08T21:21:33;14.10;99.90
43227;DHT22;28839;52.404;9.808;2023-08-08T21:28:29;14.20;99.90
43227;DHT22;28839;52.404;9.808;2023-08-08T21:35:22;14.10;99.90
43227;DHT22;28839;52.404;9.808;2023-08-08T21:42:16;14.10;99.90
43227;DHT22;28839;52.404;9.808;2023-08-08T21:49:12;14.10;99.90
43227;DHT22;28839;52.404;9.808;2023-08-08T21:56:06;14.00;99.90
43227;DHT22;28839;52.404;9.808;2023-08-08T22:02:59;14.10;99.90
43227;DHT22;28839;52.404;9.808;2023-08-08T22:09:55;14.10;99.90
43227;DHT22;28839;52.404;9.808;2023-08-08T22:16:48;14.10;99.90
43227;DHT22;28839;52.404;9.808;2023-08-08T22:23:42;14.20;99.90
43227;DHT22;28839;52.404;9.808;2023-08-08T22:30:37;14.20;99.90
43227;DHT22;28839;52.404;9.808;2023-08-08T22:37:31;14.20;99.90
43227;DHT22;28839;52.404;9.808;2023-08-08T22:44:25;14.20;99.90
43227;DHT22;28839;52.404;9.808;2023-08-08T22:51:20;14.30;99.90
43227;DHT22;28839;52.404;9.808;2023-08-08T22:58:14;14.40;99.90
43227;DHT22;28839;52.404;9.808;2023-08-08T23:05:08;14.20;99.90
43227;DHT22;28839;52.404;9.808;2023-08-08T23:12:04;14.30;99.90
43227;DHT22;28839;52.404;9.808;2023-08-08T23:18:58;14.30;99.90
43227;DHT22;28839;52.404;9.808;2023-08-08T23:25:52;14.30;99.90
43227;DHT22;28839;52.404;9.808;2023-08-08T23:32:47;14.20;99.90
43227;DHT22;28839;52.404;9.808;2023-08-08T23:39:42;14.20;99.90
43227;DHT22;28839;52.404;9.808;2023-08-08T23:46:36;14.10;99.90
43227;DHT22;28839;52.404;9.808;2023-08-08T23:53:31;14.10;99.90
